createdAt,value
2023-02-14T00:00:01.535Z,90.09
2023-02-14T00:05:03.252Z,89.92
2023-02-14T00:10:05.342Z,89.64
2023-02-14T00:15:22.350Z,90.02
2023-02-14T00:20:24.295Z,90.13
2023-02-14T00:25:25.837Z,88.82
2023-02-14T00:30:27.542Z,89.16
2023-02-14T00:35:29.208Z,89.48
2023-02-14T00:40:30.757Z,88.17
2023-02-14T00:45:32.336Z,89.76
2023-02-14T00:50:33.991Z,88.52
2023-02-14T00:55:35.529Z,88.80
2023-02-14T01:00:37.093Z,87.59
2023-02-14T01:05:38.704Z,87.94
2023-02-14T01:10:40.613Z,87.36
2023-02-14T01:15:44.709Z,88.29
2023-02-14T01:20:46.452Z,86.81
2023-02-14T01:25:48.110Z,88.19
2023-02-14T01:30:51.772Z,87.15
2023-02-14T01:36:25.651Z,88.81
2023-02-14T01:41:29.262Z,88.73
2023-02-14T01:46:33.096Z,88.96
2023-02-14T01:51:35.760Z,89.93
2023-02-14T01:56:42.101Z,89.59
2023-02-14T02:01:44.309Z,90.41
2023-02-14T02:06:49.645Z,90.24
2023-02-14T02:11:51.224Z,90.69
2023-02-14T02:17:01.984Z,90.33
2023-02-14T02:22:22.251Z,89.38
2023-02-14T02:27:48.497Z,89.45
2023-02-14T02:33:15.860Z,89.73
2023-02-14T02:38:36.218Z,89.20
2023-02-14T02:43:59.636Z,89.83
2023-02-14T02:50:10.217Z,88.95
2023-02-14T02:55:17.888Z,88.48
2023-02-14T03:00:22.521Z,87.68
2023-02-14T03:05:24.636Z,88.54
2023-02-14T03:10:29.306Z,88.77
2023-02-14T03:15:52.432Z,89.33
2023-02-14T03:21:20.165Z,88.51
2023-02-14T03:26:27.394Z,88.63
2023-02-14T03:31:56.942Z,88.64
2023-02-14T03:37:10.923Z,88.41
2023-02-14T03:42:19.509Z,88.53
2023-02-14T03:47:25.042Z,88.46
2023-02-14T03:52:27.727Z,89.24
2023-02-14T03:57:35.094Z,89.06
2023-02-14T04:02:43.537Z,88.27
2023-02-14T04:07:47.699Z,88.66
2023-02-14T04:12:49.518Z,88.32
2023-02-14T04:18:09.453Z,88.50
2023-02-14T04:23:11.050Z,88.86
2023-02-14T04:28:13.036Z,89.46
2023-02-14T04:33:14.611Z,89.03
2023-02-14T04:38:16.169Z,88.93
2023-02-14T04:43:18.671Z,89.02
2023-02-14T04:48:20.272Z,86.73
2023-02-14T04:53:22.485Z,88.26
2023-02-14T04:58:24.101Z,87.92
2023-02-14T05:03:25.708Z,86.06
2023-02-14T05:08:27.299Z,87.07
2023-02-14T05:13:28.863Z,88.96
2023-02-14T05:18:30.415Z,88.78
2023-02-14T05:23:32.027Z,87.75
2023-02-14T05:28:33.923Z,87.33
2023-02-14T05:33:35.896Z,87.45
2023-02-14T05:38:37.492Z,87.18
2023-02-14T05:43:39.192Z,86.34
2023-02-14T05:48:40.922Z,86.32
2023-02-14T05:53:42.538Z,84.45
2023-02-14T05:58:44.143Z,84.30
2023-02-14T06:03:45.708Z,83.09
2023-02-14T06:08:47.320Z,83.43
2023-02-14T06:13:48.881Z,83.52
2023-02-14T06:18:50.495Z,82.79
2023-02-14T06:23:52.352Z,81.98
2023-02-14T06:28:55.385Z,81.31
2023-02-14T06:33:56.968Z,81.29
2023-02-14T06:38:58.532Z,79.46
2023-02-14T06:44:00.181Z,79.81
2023-02-14T06:49:01.755Z,79.07
2023-02-14T06:54:03.375Z,79.83
2023-02-14T06:59:05.739Z,80.83
2023-02-14T07:04:07.297Z,80.61
2023-02-14T07:09:08.865Z,79.86
2023-02-14T07:14:10.477Z,78.86
2023-02-14T07:19:12.075Z,78.97
2023-02-14T07:24:13.694Z,78.46
2023-02-14T07:29:15.306Z,78.37
2023-02-14T07:34:16.991Z,78.37
2023-02-14T07:39:18.609Z,78.40
2023-02-14T07:44:20.489Z,78.17
2023-02-14T07:49:22.341Z,77.33
2023-02-14T07:54:24.015Z,77.51
2023-02-14T07:59:26.161Z,77.22
2023-02-14T08:04:27.809Z,76.49
2023-02-14T08:09:29.399Z,76.21
2023-02-14T08:14:30.969Z,75.75
2023-02-14T08:19:32.687Z,75.46
2023-02-14T08:24:34.264Z,76.00
2023-02-14T08:29:35.832Z,76.53
2023-02-14T08:34:37.382Z,76.71
2023-02-14T08:39:39.620Z,76.18
2023-02-14T08:44:41.151Z,76.55
2023-02-14T08:49:42.759Z,75.91
2023-02-14T08:54:44.345Z,76.58
2023-02-14T08:59:45.956Z,75.88
2023-02-14T09:04:47.576Z,76.13
2023-02-14T09:09:49.148Z,75.46
2023-02-14T09:14:50.724Z,75.55
2023-02-14T09:19:52.343Z,74.54
2023-02-14T09:24:53.931Z,74.00
2023-02-14T09:29:55.557Z,73.87
2023-02-14T09:35:15.864Z,73.98
2023-02-14T09:40:19.326Z,73.91
2023-02-14T09:45:29.346Z,73.67
2023-02-14T09:50:35.328Z,74.25
2023-02-14T09:56:01.946Z,74.93
2023-02-14T10:01:09.663Z,73.56
2023-02-14T10:06:32.666Z,74.29
2023-02-14T10:11:34.547Z,74.63
2023-02-14T10:16:41.954Z,73.65
2023-02-14T10:21:56.989Z,73.26
2023-02-14T10:32:30.819Z,73.28
2023-02-14T10:37:48.244Z,73.35
2023-02-14T10:43:21.064Z,73.33
2023-02-14T10:48:42.892Z,73.24
2023-02-14T10:53:56.411Z,73.67
2023-02-14T10:58:59.305Z,74.15
2023-02-14T11:04:06.244Z,74.02
2023-02-14T11:09:10.071Z,73.47
2023-02-14T11:19:37.226Z,73.59
2023-02-14T11:24:41.493Z,73.15
2023-02-14T11:29:44.824Z,73.32
2023-02-14T11:34:52.536Z,74.01
2023-02-14T11:39:56.581Z,72.40
2023-02-14T11:44:59.501Z,72.30
2023-02-14T11:50:06.072Z,71.93
2023-02-14T11:55:07.649Z,72.26
2023-02-14T12:00:17.990Z,72.24
2023-02-14T12:05:21.489Z,71.90
2023-02-14T12:10:37.386Z,72.03
2023-02-14T12:15:56.307Z,71.22
2023-02-14T12:21:16.179Z,71.66
2023-02-14T12:26:49.361Z,71.19
2023-02-14T12:31:51.123Z,70.68
2023-02-14T12:37:11.078Z,70.66
2023-02-14T12:42:44.996Z,70.76
2023-02-14T12:47:54.701Z,70.43
2023-02-14T12:52:59.864Z,70.34
2023-02-14T12:58:21.604Z,69.97
2023-02-14T13:03:33.656Z,69.73
2023-02-14T13:08:53.173Z,69.93
2023-02-14T13:14:28.522Z,70.80
2023-02-14T13:19:41.939Z,69.77
2023-02-14T13:24:47.391Z,69.89
2023-02-14T13:29:54.970Z,69.38
2023-02-14T13:34:56.933Z,69.53
2023-02-14T13:40:02.210Z,69.73
2023-02-14T13:45:04.217Z,69.86
2023-02-14T13:50:06.436Z,69.75
2023-02-14T13:55:20.578Z,70.25
2023-02-14T14:00:29.082Z,70.87
2023-02-14T14:05:30.687Z,71.22
2023-02-14T14:10:44.886Z,70.89
2023-02-14T14:16:23.235Z,71.53
2023-02-14T14:21:32.037Z,71.70
2023-02-14T14:26:40.451Z,72.38
2023-02-14T14:31:42.280Z,72.36
2023-02-14T14:36:44.023Z,71.82
2023-02-14T14:41:45.604Z,71.76
2023-02-14T14:46:47.236Z,71.82
2023-02-14T14:51:49.032Z,71.42
2023-02-14T14:57:01.627Z,71.66
2023-02-14T15:02:05.444Z,71.82
2023-02-14T15:07:33.821Z,72.28
2023-02-14T15:12:54.221Z,72.57
2023-02-14T15:17:55.998Z,73.34
2023-02-14T15:22:57.755Z,73.58
2023-02-14T15:27:59.393Z,73.63
2023-02-14T15:33:03.425Z,74.02
2023-02-14T15:38:07.039Z,74.65
2023-02-14T15:43:17.692Z,74.41
2023-02-14T15:48:24.316Z,74.80
2023-02-14T15:54:05.388Z,75.00
2023-02-14T15:59:14.008Z,74.81
2023-02-14T16:04:15.575Z,75.53
2023-02-14T16:09:28.465Z,76.02
2023-02-14T16:14:35.628Z,75.44
2023-02-14T16:19:42.633Z,75.66
2023-02-14T16:24:44.248Z,75.90
2023-02-14T16:29:45.777Z,76.13
2023-02-14T16:34:48.245Z,76.36
2023-02-14T16:39:51.473Z,77.13
2023-02-14T16:44:53.228Z,77.28
2023-02-14T16:49:54.818Z,77.45
2023-02-14T16:54:57.183Z,78.07
2023-02-14T16:59:58.736Z,77.81
2023-02-14T17:05:00.361Z,78.13
2023-02-14T17:10:07.938Z,78.35
2023-02-14T17:15:13.200Z,78.65
2023-02-14T17:20:14.850Z,78.98
2023-02-14T17:25:16.430Z,79.34
2023-02-14T17:30:18.305Z,79.60
2023-02-14T17:35:20.021Z,79.72
2023-02-14T17:40:21.591Z,79.55
2023-02-14T17:45:23.220Z,79.64
2023-02-14T17:50:24.880Z,80.06
2023-02-14T17:55:26.425Z,79.63
2023-02-14T18:00:28.331Z,79.59
2023-02-14T18:05:30.045Z,79.70
2023-02-14T18:10:31.709Z,79.40
2023-02-14T18:15:33.260Z,79.95
2023-02-14T18:20:34.837Z,79.45
2023-02-14T18:25:36.407Z,78.93
2023-02-14T18:30:37.999Z,79.62
2023-02-14T18:35:39.708Z,79.63
2023-02-14T18:40:42.783Z,79.35
2023-02-14T18:45:44.361Z,80.11
2023-02-14T18:50:45.975Z,80.13
2023-02-14T18:55:47.945Z,80.29
2023-02-14T19:00:49.822Z,80.89
2023-02-14T19:05:53.129Z,80.99
2023-02-14T19:10:54.657Z,81.12
2023-02-14T19:15:56.451Z,81.28
2023-02-14T19:20:58.205Z,81.01
2023-02-14T19:26:09.232Z,81.51
2023-02-14T19:31:11.249Z,82.42
2023-02-14T19:36:14.909Z,82.97
2023-02-14T19:41:24.042Z,82.17
2023-02-14T19:46:26.226Z,82.26
2023-02-14T19:51:32.515Z,82.28
2023-02-14T19:56:36.723Z,82.78
2023-02-14T20:01:42.241Z,82.66
2023-02-14T20:06:44.956Z,82.85
2023-02-14T20:11:51.614Z,82.94
2023-02-14T20:16:55.264Z,83.04
2023-02-14T20:21:56.917Z,83.15
2023-02-14T20:27:00.299Z,82.96
2023-02-14T20:32:04.789Z,83.25
2023-02-14T20:37:06.548Z,83.84
2023-02-14T20:42:08.588Z,83.45
2023-02-14T20:47:10.913Z,84.24
2023-02-14T20:52:12.589Z,84.30
2023-02-14T20:57:14.123Z,84.35
2023-02-14T21:02:15.918Z,84.96
2023-02-14T21:07:17.576Z,84.71
2023-02-14T21:12:19.248Z,85.59
2023-02-14T21:17:20.808Z,85.19
2023-02-14T21:22:22.375Z,84.88
2023-02-14T21:27:23.980Z,85.01
2023-02-14T21:32:28.319Z,85.44
2023-02-14T21:37:29.990Z,85.86
2023-02-14T21:42:31.570Z,85.61
2023-02-14T21:47:36.766Z,85.83
2023-02-14T21:52:38.344Z,86.36
2023-02-14T21:57:39.873Z,86.98
2023-02-14T22:02:41.672Z,86.41
2023-02-14T22:07:43.489Z,86.25
2023-02-14T22:12:45.075Z,86.51
2023-02-14T22:17:46.678Z,86.42
2023-02-14T22:22:48.253Z,86.63
2023-02-14T22:27:49.829Z,86.41
2023-02-14T22:32:51.395Z,86.43
2023-02-14T22:37:53.045Z,86.67
2023-02-14T22:42:54.573Z,86.96
2023-02-14T22:47:56.562Z,86.89
2023-02-14T22:52:58.101Z,87.70
2023-02-14T22:58:01.150Z,87.41
2023-02-14T23:03:02.857Z,87.80
2023-02-14T23:08:04.465Z,88.10
2023-02-14T23:13:24.659Z,87.75
2023-02-14T23:18:44.605Z,88.57
2023-02-14T23:23:46.170Z,89.00
2023-02-14T23:28:47.752Z,88.38
2023-02-14T23:33:52.193Z,87.97
2023-02-14T23:38:53.739Z,87.77
2023-02-14T23:43:55.314Z,88.42
2023-02-14T23:48:56.895Z,88.40
2023-02-14T23:53:58.454Z,89.22
2023-02-14T23:59:00.033Z,88.50
